createdAt,value
2017-11-07T00:01:43.255Z,18.67
2017-11-07T00:04:10.814Z,18.20
2017-11-07T00:06:38.323Z,18.17
2017-11-07T00:09:05.838Z,18.03
2017-11-07T00:11:33.351Z,18.80
2017-11-07T00:14:00.841Z,18.40
2017-11-07T00:16:29.114Z,17.63
2017-11-07T00:19:04.670Z,18.40
2017-11-07T00:21:32.169Z,17.57
2017-11-07T00:23:59.681Z,18.00
2017-11-07T00:26:27.950Z,17.67
2017-11-07T00:28:56.213Z,17.20
2017-11-07T00:31:23.734Z,17.77
2017-11-07T00:33:51.360Z,17.10
2017-11-07T00:36:18.912Z,17.47
2017-11-07T00:38:48.018Z,16.67
2017-11-07T00:41:15.521Z,16.07
2017-11-07T00:43:43.039Z,15.83
2017-11-07T00:46:10.547Z,16.62
2017-11-07T00:48:38.141Z,16.50
2017-11-07T00:51:05.650Z,17.12
2017-11-07T00:53:33.177Z,18.02
2017-11-07T00:56:00.684Z,17.12
2017-11-07T00:58:28.185Z,17.10
2017-11-07T01:00:55.687Z,17.40
2017-11-07T01:03:23.191Z,16.33
2017-11-07T01:05:50.749Z,15.73
2017-11-07T01:08:19.001Z,17.00
2017-11-07T01:10:48.026Z,16.20
2017-11-07T01:13:16.300Z,16.73
2017-11-07T01:15:43.887Z,16.77
2017-11-07T01:18:11.419Z,16.33
2017-11-07T01:20:38.973Z,17.48
2017-11-07T01:23:07.249Z,15.73
2017-11-07T01:25:35.530Z,17.03
2017-11-07T01:28:03.059Z,17.12
2017-11-07T01:30:30.558Z,15.73
2017-11-07T01:32:58.107Z,15.73
2017-11-07T01:35:25.671Z,16.15
2017-11-07T01:37:53.158Z,16.90
2017-11-07T01:40:20.685Z,16.65
2017-11-07T01:42:48.237Z,15.98
2017-11-07T01:45:16.622Z,15.57
2017-11-07T01:47:44.122Z,14.57
2017-11-07T01:50:11.613Z,15.45
2017-11-07T01:52:39.877Z,14.80
2017-11-07T01:55:08.874Z,14.07
2017-11-07T01:57:37.141Z,14.60
2017-11-07T02:00:04.648Z,15.15
2017-11-07T02:02:32.150Z,14.17
2017-11-07T02:04:59.653Z,14.50
2017-11-07T02:07:27.147Z,14.70
2017-11-07T02:09:54.628Z,13.73
2017-11-07T02:12:22.129Z,13.73
2017-11-07T02:14:49.623Z,13.97
2017-11-07T02:17:17.133Z,13.47
2017-11-07T02:19:45.400Z,14.07
2017-11-07T02:22:13.694Z,13.73
2017-11-07T02:24:41.973Z,14.10
2017-11-07T02:27:09.528Z,14.20
2017-11-07T02:29:37.025Z,13.93
2017-11-07T02:32:04.566Z,15.10
2017-11-07T02:34:32.077Z,14.68
2017-11-07T02:37:00.350Z,14.30
2017-11-07T02:39:27.936Z,14.68
2017-11-07T02:41:56.216Z,14.60
2017-11-07T02:44:23.794Z,14.57
2017-11-07T02:46:51.306Z,14.23
2017-11-07T02:49:18.910Z,14.03
2017-11-07T02:51:46.453Z,14.03
2017-11-07T02:54:13.961Z,14.50
2017-11-07T02:56:41.473Z,14.30
2017-11-07T02:59:08.969Z,14.63
2017-11-07T03:01:36.474Z,14.37
2017-11-07T03:04:04.792Z,14.33
2017-11-07T03:06:32.295Z,14.77
2017-11-07T03:08:59.799Z,14.87
2017-11-07T03:11:27.305Z,14.10
2017-11-07T03:13:54.792Z,14.67
2017-11-07T03:16:22.353Z,14.97
2017-11-07T03:18:50.609Z,15.30
2017-11-07T03:21:18.886Z,14.77
2017-11-07T03:23:46.466Z,14.97
2017-11-07T03:26:14.800Z,14.90
2017-11-07T03:28:42.296Z,14.53
2017-11-07T03:31:10.567Z,14.60
2017-11-07T03:33:38.854Z,14.60
2017-11-07T03:36:07.156Z,14.43
2017-11-07T03:38:34.664Z,13.97
2017-11-07T03:41:02.173Z,14.97
2017-11-07T03:43:29.670Z,15.33
2017-11-07T03:45:57.261Z,14.83
2017-11-07T03:48:25.514Z,15.00
2017-11-07T03:50:53.105Z,16.17
2017-11-07T03:53:20.602Z,15.43
2017-11-07T03:55:48.107Z,16.00
2017-11-07T03:58:16.398Z,14.93
2017-11-07T04:00:43.904Z,14.77
2017-11-07T04:03:11.404Z,14.33
2017-11-07T04:05:39.693Z,14.03
2017-11-07T04:08:07.240Z,14.90
2017-11-07T04:10:36.427Z,14.17
2017-11-07T04:13:04.684Z,14.77
2017-11-07T04:15:33.694Z,14.87
2017-11-07T04:18:01.181Z,14.37
2017-11-07T04:20:28.689Z,14.70
2017-11-07T04:22:56.209Z,14.23
2017-11-07T04:25:23.711Z,15.30
2017-11-07T04:27:52.022Z,14.53
2017-11-07T04:30:20.290Z,14.40
2017-11-07T04:32:48.536Z,14.40
2017-11-07T04:35:16.047Z,14.10
2017-11-07T04:37:43.547Z,14.57
2017-11-07T04:40:11.041Z,15.13
2017-11-07T04:42:39.337Z,15.20
2017-11-07T04:45:06.837Z,14.90
2017-11-07T04:47:34.371Z,13.63
2017-11-07T04:50:01.886Z,14.17
2017-11-07T04:52:30.156Z,15.07
2017-11-07T04:54:57.654Z,16.37
2017-11-07T04:57:25.163Z,17.00
2017-11-07T04:59:52.758Z,15.97
2017-11-07T05:02:20.272Z,17.20
2017-11-07T05:04:47.878Z,22.83
2017-11-07T05:07:15.382Z,19.33
2017-11-07T05:09:42.903Z,17.23
2017-11-07T05:12:10.431Z,16.67
2017-11-07T05:14:39.598Z,16.00
2017-11-07T05:17:07.204Z,16.90
2017-11-07T05:19:34.697Z,15.80
2017-11-07T05:22:02.229Z,15.93
2017-11-07T05:24:29.722Z,15.90
2017-11-07T05:26:57.225Z,15.70
2017-11-07T05:29:25.509Z,16.00
2017-11-07T05:31:53.773Z,14.60
2017-11-07T05:34:22.028Z,15.87
2017-11-07T05:36:49.635Z,16.57
2017-11-07T05:39:17.136Z,16.13
2017-11-07T05:41:44.646Z,15.40
2017-11-07T05:44:12.135Z,15.53
2017-11-07T05:46:39.658Z,14.93
2017-11-07T05:49:07.220Z,15.50
2017-11-07T05:51:34.721Z,15.67
2017-11-07T05:54:02.218Z,14.57
2017-11-07T05:56:30.482Z,15.83
2017-11-07T05:58:58.006Z,15.90
2017-11-07T06:01:25.530Z,17.17
2017-11-07T06:03:53.026Z,18.47
2017-11-07T06:06:20.649Z,18.27
2017-11-07T06:08:48.160Z,18.57
2017-11-07T06:11:15.678Z,18.07
2017-11-07T06:13:43.226Z,17.80
2017-11-07T06:16:10.729Z,19.10
2017-11-07T06:18:38.379Z,19.07
2017-11-07T06:21:05.883Z,19.53
2017-11-07T06:23:34.167Z,19.00
2017-11-07T06:26:02.438Z,21.07
2017-11-07T06:28:30.693Z,21.43
2017-11-07T06:30:58.206Z,18.63
2017-11-07T06:33:25.725Z,19.07
2017-11-07T06:35:53.987Z,17.57
2017-11-07T06:38:21.501Z,17.47
2017-11-07T06:40:49.009Z,17.43
2017-11-07T06:43:16.507Z,16.30
2017-11-07T06:45:44.050Z,16.73
2017-11-07T06:48:11.547Z,17.07
2017-11-07T06:50:39.064Z,16.37
2017-11-07T06:53:07.308Z,15.30
2017-11-07T06:55:34.904Z,15.80
2017-11-07T06:58:02.463Z,14.27
2017-11-07T07:00:30.018Z,14.40
2017-11-07T07:02:58.346Z,14.30
2017-11-07T07:05:25.890Z,14.70
2017-11-07T07:07:53.385Z,15.70
2017-11-07T07:10:20.974Z,16.43
2017-11-07T07:12:48.567Z,15.50
2017-11-07T07:15:16.058Z,15.97
2017-11-07T07:17:43.571Z,15.67
2017-11-07T07:20:11.080Z,14.70
2017-11-07T07:22:38.696Z,14.53
2017-11-07T07:25:06.230Z,15.37
2017-11-07T07:27:33.785Z,14.97
2017-11-07T07:30:01.346Z,14.73
2017-11-07T07:32:28.854Z,14.43
2017-11-07T07:34:56.369Z,13.93
2017-11-07T07:37:23.864Z,14.13
2017-11-07T07:39:51.356Z,13.53
2017-11-07T07:42:19.654Z,14.63
2017-11-07T07:44:47.912Z,13.83
2017-11-07T07:47:15.413Z,14.33
2017-11-07T07:49:43.017Z,13.67
2017-11-07T07:52:11.329Z,13.80
2017-11-07T07:54:38.820Z,13.97
2017-11-07T07:57:06.323Z,13.30
2017-11-07T07:59:34.581Z,13.97
2017-11-07T08:02:02.178Z,13.47
2017-11-07T08:04:30.423Z,13.80
2017-11-07T08:06:57.924Z,13.50
2017-11-07T08:09:25.505Z,13.47
2017-11-07T08:11:53.010Z,13.33
2017-11-07T08:14:20.488Z,12.80
2017-11-07T08:16:48.780Z,13.87
2017-11-07T08:19:16.280Z,13.73
2017-11-07T08:21:43.881Z,12.73
2017-11-07T08:24:11.373Z,13.20
2017-11-07T08:26:38.901Z,13.70
2017-11-07T08:29:07.153Z,13.50
2017-11-07T08:31:34.646Z,14.17
2017-11-07T08:34:02.168Z,13.87
2017-11-07T08:36:29.669Z,13.93
2017-11-07T08:38:57.165Z,14.20
2017-11-07T08:41:24.664Z,14.20
2017-11-07T08:43:52.917Z,15.07
2017-11-07T08:46:21.210Z,15.10
2017-11-07T08:48:49.469Z,14.43
2017-11-07T08:51:17.802Z,15.73
2017-11-07T08:53:45.298Z,15.40
2017-11-07T08:56:13.565Z,15.03
2017-11-07T08:58:41.065Z,16.10
2017-11-07T09:01:09.328Z,15.17
2017-11-07T09:03:37.608Z,16.40
2017-11-07T09:06:05.886Z,15.73
2017-11-07T09:08:34.153Z,18.07
2017-11-07T09:11:02.492Z,18.13
2017-11-07T09:13:30.005Z,18.53
2017-11-07T09:15:57.566Z,20.47
2017-11-07T09:18:25.064Z,18.63
2017-11-07T09:20:52.561Z,18.73
2017-11-07T09:23:20.821Z,18.87
2017-11-07T09:25:48.338Z,20.73
2017-11-07T09:28:15.829Z,19.93
2017-11-07T09:30:43.358Z,18.93
2017-11-07T09:33:10.854Z,19.30
2017-11-07T09:35:38.388Z,19.63
2017-11-07T09:38:05.949Z,18.17
2017-11-07T09:40:33.468Z,18.40
2017-11-07T09:43:01.029Z,18.60
2017-11-07T09:45:28.541Z,17.50
2017-11-07T09:47:56.041Z,18.43
2017-11-07T09:50:23.574Z,18.70
2017-11-07T09:52:51.066Z,18.70
2017-11-07T09:55:18.725Z,18.57
2017-11-07T09:57:46.408Z,18.00
2017-11-07T10:00:13.937Z,18.20
2017-11-07T10:02:41.466Z,18.00
2017-11-07T10:05:09.057Z,17.93
2017-11-07T10:07:37.327Z,18.13
2017-11-07T10:10:05.613Z,18.30
2017-11-07T10:12:33.976Z,17.90
2017-11-07T10:15:02.231Z,17.27
2017-11-07T10:17:29.736Z,17.03
2017-11-07T10:19:57.390Z,17.40
2017-11-07T10:22:24.894Z,17.13
2017-11-07T10:24:52.390Z,16.80
2017-11-07T10:27:20.701Z,17.17
2017-11-07T10:29:48.191Z,16.60
2017-11-07T10:32:15.690Z,17.50
2017-11-07T10:34:43.953Z,16.97
2017-11-07T10:37:12.225Z,17.60
2017-11-07T10:39:40.492Z,15.93
2017-11-07T10:42:09.381Z,17.27
2017-11-07T10:44:36.865Z,15.13
2017-11-07T10:47:05.140Z,16.43
2017-11-07T10:49:33.388Z,15.73
2017-11-07T10:52:00.904Z,16.20
2017-11-07T10:54:28.389Z,15.73
2017-11-07T10:56:55.917Z,13.83
2017-11-07T10:59:23.437Z,14.50
2017-11-07T11:01:51.714Z,14.80
2017-11-07T11:04:19.989Z,14.60
2017-11-07T11:06:48.257Z,14.47
2017-11-07T11:09:15.766Z,15.00
2017-11-07T11:11:43.293Z,14.60
2017-11-07T11:14:11.553Z,15.10
2017-11-07T11:16:39.048Z,15.00
2017-11-07T11:19:06.546Z,14.63
2017-11-07T11:21:34.049Z,15.37
2017-11-07T11:24:02.368Z,14.97
2017-11-07T11:26:29.869Z,15.43
2017-11-07T11:28:58.129Z,14.90
2017-11-07T11:31:25.742Z,14.73
2017-11-07T11:33:53.294Z,15.67
2017-11-07T11:36:20.844Z,104.17
2017-11-07T11:38:48.390Z,60.27
2017-11-07T11:41:16.659Z,46.50
2017-11-07T11:43:44.905Z,58.37
2017-11-07T11:46:12.500Z,49.90
2017-11-07T11:48:40.764Z,72.47
2017-11-07T11:51:08.288Z,155.17
2017-11-07T11:53:35.815Z,76.77
2017-11-07T11:56:03.328Z,70.83
2017-11-07T11:58:30.830Z,32.33
2017-11-07T12:00:58.340Z,50.20
2017-11-07T12:03:25.971Z,57.77
2017-11-07T12:05:53.509Z,29.90
2017-11-07T12:08:21.048Z,46.57
2017-11-07T12:10:49.321Z,49.67
2017-11-07T12:13:17.614Z,25.17
2017-11-07T12:15:45.128Z,33.37
2017-11-07T12:18:12.616Z,33.70
2017-11-07T12:20:40.873Z,27.17
2017-11-07T12:23:08.472Z,23.17
2017-11-07T12:25:36.027Z,18.93
2017-11-07T12:28:03.516Z,23.33
2017-11-07T12:30:31.130Z,32.23
2017-11-07T12:32:59.429Z,26.17
2017-11-07T12:35:27.254Z,21.83
2017-11-07T12:37:56.273Z,20.33
2017-11-07T12:40:23.762Z,19.33
2017-11-07T12:42:51.261Z,17.83
2017-11-07T12:45:18.851Z,25.77
2017-11-07T12:47:46.346Z,26.67
2017-11-07T12:50:25.742Z,21.23
2017-11-07T12:52:54.010Z,19.93
2017-11-07T12:55:22.276Z,15.40
2017-11-07T12:57:49.769Z,18.83
2017-11-07T13:00:17.315Z,16.73
2017-11-07T13:02:45.600Z,14.33
2017-11-07T13:05:13.093Z,16.73
2017-11-07T13:07:40.607Z,14.30
2017-11-07T13:10:08.903Z,14.87
2017-11-07T13:12:36.400Z,15.10
2017-11-07T13:15:03.887Z,16.90
2017-11-07T13:17:32.260Z,15.17
2017-11-07T13:20:00.524Z,14.47
2017-11-07T13:22:28.015Z,15.70
2017-11-07T13:24:55.498Z,16.00
2017-11-07T13:27:23.021Z,15.40
2017-11-07T13:29:51.288Z,14.70
2017-11-07T13:32:19.583Z,15.70
2017-11-07T13:34:47.072Z,15.50
2017-11-07T13:37:14.582Z,15.50
2017-11-07T13:39:42.893Z,14.87
2017-11-07T13:42:10.414Z,13.80
2017-11-07T13:44:38.687Z,15.10
2017-11-07T13:47:06.952Z,15.60
2017-11-07T13:49:34.432Z,16.53
2017-11-07T13:52:02.753Z,14.63
2017-11-07T13:54:30.229Z,15.67
2017-11-07T13:56:57.829Z,14.33
2017-11-07T13:59:26.105Z,14.23
2017-11-07T14:01:54.372Z,15.77
2017-11-07T14:04:22.628Z,15.63
2017-11-07T14:06:50.121Z,15.20
2017-11-07T14:09:17.622Z,16.67
2017-11-07T14:11:45.151Z,15.97
2017-11-07T14:14:12.654Z,16.53
2017-11-07T14:16:40.171Z,17.10
2017-11-07T14:19:07.665Z,16.27
2017-11-07T14:21:35.168Z,16.73
2017-11-07T14:24:03.446Z,16.50
2017-11-07T14:26:31.734Z,16.87
2017-11-07T14:28:59.233Z,17.20
2017-11-07T14:31:26.738Z,17.13
2017-11-07T14:33:55.005Z,17.80
2017-11-07T14:36:23.259Z,19.13
2017-11-07T14:38:51.594Z,18.20
2017-11-07T14:41:19.101Z,19.20
2017-11-07T14:43:46.587Z,18.60
2017-11-07T14:46:14.147Z,18.63
2017-11-07T14:48:41.645Z,19.57
2017-11-07T14:51:09.753Z,20.17
2017-11-07T14:53:38.056Z,21.03
2017-11-07T14:56:05.630Z,20.33
2017-11-07T14:58:33.117Z,20.00
2017-11-07T15:01:00.745Z,20.77
2017-11-07T15:03:28.254Z,21.67
2017-11-07T15:05:55.749Z,22.90
2017-11-07T15:08:23.327Z,23.27
2017-11-07T15:10:51.688Z,22.00
2017-11-07T15:13:19.171Z,23.23
2017-11-07T15:15:46.836Z,23.50
2017-11-07T15:18:14.474Z,22.97
2017-11-07T15:20:42.025Z,23.90
2017-11-07T15:23:09.575Z,24.53
2017-11-07T15:25:37.858Z,23.10
2017-11-07T15:28:06.114Z,23.07
2017-11-07T15:30:34.414Z,23.73
2017-11-07T15:33:01.907Z,24.37
2017-11-07T15:35:29.615Z,25.03
2017-11-07T15:37:58.637Z,26.17
2017-11-07T15:40:26.145Z,24.60
2017-11-07T15:42:53.645Z,24.80
2017-11-07T15:45:21.156Z,27.10
2017-11-07T15:47:48.685Z,25.43
2017-11-07T15:50:16.189Z,25.77
2017-11-07T15:52:43.672Z,25.27
2017-11-07T15:55:11.232Z,26.67
2017-11-07T15:57:38.795Z,26.60
2017-11-07T16:00:06.308Z,26.90
2017-11-07T16:02:33.827Z,28.17
2017-11-07T16:05:01.359Z,28.80
2017-11-07T16:07:28.892Z,27.90
2017-11-07T16:09:56.379Z,28.83
2017-11-07T16:12:24.654Z,30.53
2017-11-07T16:14:52.929Z,30.43
2017-11-07T16:17:21.230Z,31.47
2017-11-07T16:19:48.746Z,33.90
2017-11-07T16:22:16.284Z,35.07
2017-11-07T16:24:43.782Z,31.73
2017-11-07T16:27:12.057Z,33.83
2017-11-07T16:29:40.333Z,33.10
2017-11-07T16:32:09.381Z,36.03
2017-11-07T16:34:36.875Z,33.80
2017-11-07T16:37:04.418Z,34.23
2017-11-07T16:39:31.926Z,32.23
2017-11-07T16:41:59.432Z,33.33
2017-11-07T16:44:26.928Z,36.37
2017-11-07T16:46:54.500Z,37.30
2017-11-07T16:49:22.019Z,36.37
2017-11-07T16:51:49.513Z,34.70
2017-11-07T16:54:17.074Z,34.13
2017-11-07T16:56:44.638Z,34.17
2017-11-07T16:59:12.133Z,33.30
2017-11-07T17:01:39.649Z,33.73
2017-11-07T17:04:07.155Z,36.57
2017-11-07T17:06:34.665Z,43.70
2017-11-07T17:09:02.218Z,40.00
2017-11-07T17:11:29.717Z,43.53
2017-11-07T17:13:57.209Z,39.57
2017-11-07T17:16:25.514Z,36.80
2017-11-07T17:18:53.014Z,36.63
2017-11-07T17:21:20.521Z,35.60
2017-11-07T17:23:48.772Z,35.57
2017-11-07T17:26:16.299Z,35.17
2017-11-07T17:28:43.802Z,35.83
2017-11-07T17:31:13.013Z,35.27
2017-11-07T17:33:40.516Z,37.53
2017-11-07T17:36:08.023Z,36.13
2017-11-07T17:38:36.810Z,37.53
2017-11-07T17:41:05.078Z,38.33
2017-11-07T17:43:33.333Z,37.20
2017-11-07T17:46:00.833Z,38.27
2017-11-07T17:48:28.367Z,38.20
2017-11-07T17:50:55.863Z,37.80
2017-11-07T17:53:23.360Z,40.07
2017-11-07T17:55:50.882Z,38.80
2017-11-07T17:58:18.379Z,39.43
2017-11-07T18:00:45.894Z,40.27
2017-11-07T18:03:13.423Z,38.73
2017-11-07T18:05:41.769Z,39.47
2017-11-07T18:08:09.269Z,41.20
2017-11-07T18:10:36.810Z,42.37
2017-11-07T18:13:05.072Z,44.07
2017-11-07T18:15:33.361Z,42.20
2017-11-07T18:18:01.641Z,42.67
2017-11-07T18:20:30.189Z,44.53
2017-11-07T18:22:57.814Z,42.37
2017-11-07T18:25:25.324Z,41.70
2017-11-07T18:27:52.833Z,42.97
2017-11-07T18:30:20.334Z,43.43
2017-11-07T18:32:47.919Z,42.57
2017-11-07T18:35:16.202Z,42.50
2017-11-07T18:37:44.452Z,44.63
2017-11-07T18:40:11.954Z,45.40
2017-11-07T18:42:39.497Z,44.63
2017-11-07T18:45:07.020Z,46.03
2017-11-07T18:47:34.548Z,46.60
2017-11-07T18:50:02.309Z,46.63
2017-11-07T18:52:29.825Z,45.47
2017-11-07T18:54:58.096Z,44.10
2017-11-07T18:57:25.619Z,45.63
2017-11-07T18:59:53.160Z,46.00
2017-11-07T19:02:20.657Z,47.00
2017-11-07T19:04:48.161Z,46.13
2017-11-07T19:07:15.689Z,47.03
2017-11-07T19:09:43.175Z,46.47
2017-11-07T19:12:10.677Z,47.27
2017-11-07T19:14:39.469Z,45.73
2017-11-07T19:17:07.024Z,46.27
2017-11-07T19:19:34.751Z,53.73
2017-11-07T19:22:02.295Z,48.17
2017-11-07T19:24:29.802Z,45.40
2017-11-07T19:26:57.369Z,45.63
2017-11-07T19:29:24.874Z,46.77
2017-11-07T19:31:52.372Z,45.33
2017-11-07T19:34:19.902Z,47.33
2017-11-07T19:36:47.479Z,46.10
2017-11-07T19:39:15.050Z,47.37
2017-11-07T19:41:42.603Z,48.83
2017-11-07T19:44:10.088Z,47.70
2017-11-07T19:46:37.600Z,46.90
2017-11-07T19:49:05.143Z,45.27
2017-11-07T19:51:32.787Z,46.10
2017-11-07T19:54:01.036Z,45.63
2017-11-07T19:56:28.633Z,45.27
2017-11-07T19:58:57.066Z,51.27
2017-11-07T20:01:25.386Z,47.67
2017-11-07T20:06:26.367Z,44.83
2017-11-07T20:08:53.902Z,43.60
2017-11-07T20:11:22.181Z,45.77
2017-11-07T20:13:50.464Z,46.73
2017-11-07T20:16:18.025Z,45.67
2017-11-07T20:18:45.540Z,45.03
2017-11-07T20:21:13.092Z,45.47
2017-11-07T20:23:40.635Z,47.17
2017-11-07T20:26:08.289Z,47.73
2017-11-07T20:28:35.904Z,46.30
2017-11-07T20:31:03.469Z,47.90
2017-11-07T20:33:31.766Z,46.13
2017-11-07T20:35:59.296Z,45.33
2017-11-07T20:38:26.790Z,46.83
2017-11-07T20:40:54.341Z,45.10
2017-11-07T20:43:21.865Z,55.13
2017-11-07T20:45:51.095Z,50.13
2017-11-07T20:48:18.605Z,51.50
2017-11-07T20:50:46.144Z,49.00
2017-11-07T20:53:13.745Z,48.47
2017-11-07T20:55:41.293Z,49.13
2017-11-07T20:58:08.917Z,46.60
2017-11-07T21:00:36.428Z,46.43
2017-11-07T21:03:04.684Z,45.83
2017-11-07T21:05:32.195Z,46.43
2017-11-07T21:08:00.239Z,45.30
2017-11-07T21:10:28.562Z,46.33
2017-11-07T21:12:58.169Z,46.50
2017-11-07T21:15:26.407Z,47.17
2017-11-07T21:17:53.912Z,46.70
2017-11-07T21:20:24.348Z,47.67
2017-11-07T21:22:52.181Z,47.17
2017-11-07T21:25:19.689Z,45.97
2017-11-07T21:27:47.200Z,45.87
2017-11-07T21:30:14.726Z,47.27
2017-11-07T21:32:43.825Z,48.70
2017-11-07T21:37:52.400Z,53.53
2017-11-07T21:40:20.439Z,51.30
2017-11-07T21:42:47.938Z,49.47
2017-11-07T21:45:15.501Z,49.27
2017-11-07T21:47:42.992Z,47.93
2017-11-07T21:50:12.497Z,49.93
2017-11-07T21:52:40.013Z,47.70
2017-11-07T21:55:08.026Z,45.63
2017-11-07T21:57:36.625Z,45.77
2017-11-07T22:00:04.971Z,45.37
2017-11-07T22:02:40.892Z,47.13
2017-11-07T22:05:13.344Z,45.00
2017-11-07T22:07:41.455Z,45.93
2017-11-07T22:10:14.758Z,44.70
2017-11-07T22:12:42.260Z,46.60
2017-11-07T22:15:09.870Z,47.07
2017-11-07T22:17:37.360Z,45.70
2017-11-07T22:20:07.404Z,45.60
2017-11-07T22:22:40.680Z,46.87
2017-11-07T22:25:17.250Z,43.80
2017-11-07T22:27:45.569Z,45.40
2017-11-07T22:32:55.906Z,45.80
2017-11-07T22:35:30.545Z,46.57
2017-11-07T22:37:58.044Z,44.50
2017-11-07T22:40:25.560Z,44.53
2017-11-07T22:42:53.053Z,47.13
2017-11-07T22:45:21.228Z,49.00
2017-11-07T22:47:48.921Z,54.57
2017-11-07T22:50:16.453Z,58.00
2017-11-07T22:52:43.969Z,64.03
2017-11-07T22:55:11.462Z,63.90
2017-11-07T22:57:38.993Z,59.33
2017-11-07T23:00:06.516Z,57.00
2017-11-07T23:02:34.054Z,55.97
2017-11-07T23:05:01.577Z,49.37
2017-11-07T23:07:29.095Z,47.37
2017-11-07T23:10:00.978Z,45.87
2017-11-07T23:12:28.540Z,45.37
2017-11-07T23:14:56.402Z,46.03
2017-11-07T23:17:30.609Z,46.67
2017-11-07T23:19:58.876Z,46.77
2017-11-07T23:22:27.165Z,46.93
2017-11-07T23:24:54.685Z,48.57
2017-11-07T23:27:22.202Z,46.93
2017-11-07T23:29:49.758Z,48.97
2017-11-07T23:32:17.264Z,45.70
2017-11-07T23:34:44.773Z,45.87
2017-11-07T23:37:12.258Z,47.47
2017-11-07T23:39:39.889Z,46.77
2017-11-07T23:42:07.391Z,45.87
2017-11-07T23:44:34.894Z,47.33
2017-11-07T23:47:03.212Z,47.60
2017-11-07T23:49:30.776Z,48.53
2017-11-07T23:51:58.318Z,46.13
2017-11-07T23:54:25.811Z,48.57
2017-11-07T23:56:53.328Z,46.97
2017-11-07T23:59:20.849Z,48.33
